createdAt,value
2023-03-08T00:01:17.473Z,94698.34
2023-03-08T00:03:46.300Z,94711.28
2023-03-08T00:06:17.335Z,94669.38
2023-03-08T00:08:46.383Z,94676.25
2023-03-08T00:11:14.744Z,94716.81
2023-03-08T00:13:43.303Z,94697.09
2023-03-08T00:16:14.811Z,94706.25
2023-03-08T00:18:43.317Z,94631.13
2023-03-08T00:21:14.342Z,94722.63
2023-03-08T00:23:43.449Z,94722.09
2023-03-08T00:26:12.835Z,94726.03
2023-03-08T00:28:42.293Z,94670.69
2023-03-08T00:31:13.991Z,94725.16
2023-03-08T00:33:42.859Z,94684.56
2023-03-08T00:36:16.522Z,94725.44
2023-03-08T00:38:45.309Z,94726.38
2023-03-08T00:41:13.878Z,94655.59
2023-03-08T00:43:42.554Z,94726.97
2023-03-08T00:46:12.721Z,94724.88
2023-03-08T00:48:41.851Z,94705.94
2023-03-08T00:51:13.422Z,94654.84
2023-03-08T00:53:41.833Z,94709.44
2023-03-08T00:56:10.133Z,94686.47
2023-03-08T00:58:39.826Z,94710.66
2023-03-08T01:01:08.912Z,94680.03
2023-03-08T01:03:38.710Z,94705.66
2023-03-08T01:06:10.265Z,94686.13
2023-03-08T01:08:40.253Z,94703.22
2023-03-08T01:11:08.522Z,94517.88
2023-03-08T01:13:37.303Z,94693.78
2023-03-08T01:16:05.688Z,94527.72
2023-03-08T01:18:33.980Z,94631.03
2023-03-08T01:21:05.670Z,94694.22
2023-03-08T01:23:34.358Z,94705.56
2023-03-08T01:26:04.573Z,94679.19
2023-03-08T01:28:33.297Z,94700.22
2023-03-08T01:31:06.080Z,94703.41
2023-03-08T01:33:34.620Z,94650.88
2023-03-08T01:36:06.384Z,94695.53
2023-03-08T01:38:34.982Z,94659.78
2023-03-08T01:41:05.028Z,94707.03
2023-03-08T01:43:35.276Z,94711.78
2023-03-08T01:46:16.906Z,94641.66
2023-03-08T01:48:50.026Z,94708.63
2023-03-08T01:51:27.613Z,94539.50
2023-03-08T01:53:57.697Z,94707.25
2023-03-08T01:56:27.679Z,94700.84
2023-03-08T01:58:56.992Z,94692.63
2023-03-08T02:01:25.841Z,94680.56
2023-03-08T02:03:54.522Z,94707.06
2023-03-08T02:06:24.340Z,94539.34
2023-03-08T02:08:52.683Z,94690.38
2023-03-08T02:11:22.221Z,94629.56
2023-03-08T02:13:52.318Z,94683.47
2023-03-08T02:16:22.412Z,94685.50
2023-03-08T02:18:52.950Z,94681.53
2023-03-08T02:21:21.515Z,94671.28
2023-03-08T02:23:51.515Z,94673.88
2023-03-08T02:26:20.397Z,94671.03
2023-03-08T02:28:48.833Z,94694.50
2023-03-08T02:31:17.672Z,94643.25
2023-03-08T02:33:45.919Z,94697.56
2023-03-08T02:36:14.264Z,94621.16
2023-03-08T02:38:42.631Z,94594.50
2023-03-08T02:41:12.350Z,94695.91
2023-03-08T02:43:40.662Z,94704.50
2023-03-08T02:46:08.991Z,94709.22
2023-03-08T02:48:40.145Z,94707.44
2023-03-08T02:51:08.439Z,94682.34
2023-03-08T02:53:36.776Z,94627.44
2023-03-08T02:56:05.254Z,94702.56
2023-03-08T02:58:34.895Z,94687.22
2023-03-08T03:01:03.293Z,94522.91
2023-03-08T03:03:31.584Z,94705.88
2023-03-08T03:06:00.004Z,94713.69
2023-03-08T03:08:31.020Z,94644.00
2023-03-08T03:10:59.535Z,94708.59
2023-03-08T03:13:28.210Z,94635.25
2023-03-08T03:15:58.140Z,94707.16
2023-03-08T03:18:26.504Z,94653.06
2023-03-08T03:20:54.793Z,94721.94
2023-03-08T03:23:23.902Z,94733.13
2023-03-08T03:25:52.524Z,94720.09
2023-03-08T03:28:20.774Z,94725.72
2023-03-08T03:30:49.290Z,94729.88
2023-03-08T03:33:18.905Z,94722.56
2023-03-08T03:35:47.194Z,94681.72
2023-03-08T03:38:15.541Z,94728.91
2023-03-08T03:40:43.852Z,94735.00
2023-03-08T03:43:12.121Z,94739.97
2023-03-08T03:45:40.456Z,94625.53
2023-03-08T03:48:08.772Z,94682.75
2023-03-08T03:50:38.515Z,94741.84
2023-03-08T03:53:06.890Z,94743.41
2023-03-08T03:55:35.219Z,94749.41
2023-03-08T03:58:03.547Z,94549.69
2023-03-08T04:00:31.832Z,94748.41
2023-03-08T04:03:00.135Z,94769.50
2023-03-08T04:05:28.438Z,94759.50
2023-03-08T04:07:58.201Z,94752.66
2023-03-08T04:10:26.759Z,94764.66
2023-03-08T04:12:55.435Z,94722.84
2023-03-08T04:15:24.134Z,94778.31
2023-03-08T04:17:52.601Z,94773.09
2023-03-08T04:20:21.350Z,94771.56
2023-03-08T04:22:49.890Z,94743.97
2023-03-08T04:25:20.498Z,94771.56
2023-03-08T04:27:49.276Z,94772.97
2023-03-08T04:30:17.924Z,94776.75
2023-03-08T04:32:46.703Z,94783.09
2023-03-08T04:35:15.035Z,94778.94
2023-03-08T04:37:46.229Z,94773.41
2023-03-08T04:40:15.709Z,94770.75
2023-03-08T04:42:45.405Z,94766.78
2023-03-08T04:45:13.915Z,94731.97
2023-03-08T04:47:42.591Z,94764.16
2023-03-08T04:50:12.619Z,94705.28
2023-03-08T04:52:41.160Z,94684.06
2023-03-08T04:55:10.022Z,94763.31
2023-03-08T04:57:40.898Z,94762.94
2023-03-08T05:00:13.094Z,94762.47
2023-03-08T05:02:41.747Z,94666.03
2023-03-08T05:05:10.294Z,94767.28
2023-03-08T05:07:39.174Z,94723.22
2023-03-08T05:10:07.881Z,94667.47
2023-03-08T05:12:36.186Z,94776.66
2023-03-08T05:15:06.556Z,94733.97
2023-03-08T05:17:36.283Z,94759.16
2023-03-08T05:20:04.758Z,94777.75
2023-03-08T05:22:37.124Z,94784.69
2023-03-08T05:25:10.825Z,94704.09
2023-03-08T05:27:39.171Z,94755.88
2023-03-08T05:30:08.217Z,94742.91
2023-03-08T05:32:38.004Z,94586.25
2023-03-08T05:35:06.902Z,94805.56
2023-03-08T05:37:35.131Z,94749.50
2023-03-08T05:40:06.201Z,94673.75
2023-03-08T05:42:34.875Z,94810.91
2023-03-08T05:45:03.240Z,94816.03
2023-03-08T05:47:31.585Z,94824.19
2023-03-08T05:50:01.309Z,94776.31
2023-03-08T05:52:34.137Z,94819.53
2023-03-08T05:55:02.774Z,94802.94
2023-03-08T05:57:31.160Z,94821.28
2023-03-08T05:59:59.450Z,94818.66
2023-03-08T06:02:29.822Z,94819.09
2023-03-08T06:04:58.289Z,94637.47
2023-03-08T06:07:28.692Z,94820.94
2023-03-08T06:09:57.045Z,94818.72
2023-03-08T06:12:25.446Z,94820.91
2023-03-08T06:14:54.384Z,94818.34
2023-03-08T06:17:22.654Z,94818.06
2023-03-08T06:19:50.890Z,94818.84
2023-03-08T06:22:19.259Z,94816.41
2023-03-08T06:24:50.092Z,94824.72
2023-03-08T06:27:18.671Z,94820.78
2023-03-08T06:29:48.400Z,94819.25
2023-03-08T06:32:16.703Z,94753.47
2023-03-08T06:34:45.269Z,94816.75
2023-03-08T06:37:13.501Z,94824.59
2023-03-08T06:39:41.963Z,94827.97
2023-03-08T06:42:11.607Z,94823.63
2023-03-08T06:44:40.129Z,94753.53
2023-03-08T06:47:08.519Z,94783.88
2023-03-08T06:49:37.019Z,94833.94
2023-03-08T06:52:05.761Z,94837.56
2023-03-08T06:54:34.102Z,94831.94
2023-03-08T06:57:02.447Z,94832.22
2023-03-08T06:59:32.225Z,94838.38
2023-03-08T07:02:01.581Z,94841.31
2023-03-08T07:04:29.824Z,94838.22
2023-03-08T07:06:59.521Z,94838.94
2023-03-08T07:09:27.959Z,94842.88
2023-03-08T07:11:56.622Z,94838.03
2023-03-08T07:14:24.839Z,94850.13
2023-03-08T07:16:54.544Z,94829.28
2023-03-08T07:19:22.963Z,94842.78
2023-03-08T07:21:51.301Z,94842.53
2023-03-08T07:24:19.509Z,94830.91
2023-03-08T07:26:47.771Z,94844.41
2023-03-08T07:29:16.056Z,94849.19
2023-03-08T07:31:44.375Z,94854.41
2023-03-08T07:34:14.045Z,94849.91
2023-03-08T07:36:42.339Z,94854.34
2023-03-08T07:39:10.723Z,94858.00
2023-03-08T07:41:38.918Z,94852.69
2023-03-08T07:44:07.461Z,94858.50
2023-03-08T07:46:35.961Z,94856.13
2023-03-08T07:49:04.250Z,94839.47
2023-03-08T07:51:33.902Z,94846.94
2023-03-08T07:54:02.213Z,94860.97
2023-03-08T07:56:30.990Z,94854.56
2023-03-08T07:58:59.297Z,94683.47
2023-03-08T08:01:27.688Z,94849.84
2023-03-08T08:03:56.427Z,94799.69
2023-03-08T08:06:24.739Z,94843.06
2023-03-08T08:08:54.522Z,94834.41
2023-03-08T08:11:23.125Z,94835.84
2023-03-08T08:13:51.412Z,94830.81
2023-03-08T08:16:20.264Z,94799.63
2023-03-08T08:18:48.597Z,94831.31
2023-03-08T08:21:17.564Z,94827.41
2023-03-08T08:23:46.687Z,94824.66
2023-03-08T08:26:18.906Z,94824.94
2023-03-08T08:28:52.207Z,94826.25
2023-03-08T08:31:22.708Z,94815.44
2023-03-08T08:33:51.095Z,94816.41
2023-03-08T08:36:21.516Z,94820.22
2023-03-08T08:38:49.900Z,94815.09
2023-03-08T08:41:21.939Z,94804.19
2023-03-08T08:43:50.875Z,94812.59
2023-03-08T08:46:19.652Z,94738.25
2023-03-08T08:48:47.800Z,94805.66
2023-03-08T08:51:16.349Z,94798.97
2023-03-08T08:53:45.354Z,94798.84
2023-03-08T08:56:26.053Z,94806.03
2023-03-08T08:58:56.452Z,94794.91
2023-03-08T09:01:26.805Z,94793.16
2023-03-08T09:03:55.272Z,94795.59
2023-03-08T09:06:25.426Z,94786.75
2023-03-08T09:08:55.044Z,94787.59
2023-03-08T09:11:24.227Z,94781.38
2023-03-08T09:13:53.284Z,94729.56
2023-03-08T09:16:25.195Z,94801.28
2023-03-08T09:18:54.118Z,94766.59
2023-03-08T09:21:22.351Z,94797.28
2023-03-08T09:23:50.720Z,94785.16
2023-03-08T09:26:19.448Z,94719.69
2023-03-08T09:28:47.670Z,94788.50
2023-03-08T09:31:17.936Z,94790.78
2023-03-08T09:33:52.128Z,94782.25
2023-03-08T09:36:20.792Z,94778.56
2023-03-08T09:38:50.376Z,94759.56
2023-03-08T09:41:33.156Z,94779.16
2023-03-08T09:44:17.721Z,94774.72
2023-03-08T09:46:50.196Z,94773.13
2023-03-08T09:49:25.049Z,94754.97
2023-03-08T09:52:01.644Z,94768.31
2023-03-08T09:54:30.405Z,94764.34
2023-03-08T09:56:58.665Z,94764.47
2023-03-08T09:59:33.666Z,94758.00
2023-03-08T10:02:06.351Z,94763.06
2023-03-08T10:05:06.148Z,94760.78
2023-03-08T10:07:50.663Z,94762.69
2023-03-08T10:10:29.016Z,94715.44
2023-03-08T10:13:14.197Z,94758.41
2023-03-08T10:15:45.479Z,94755.53
2023-03-08T10:18:19.606Z,94745.13
2023-03-08T10:20:50.318Z,94755.91
2023-03-08T10:23:20.588Z,94752.38
2023-03-08T10:25:50.333Z,94740.88
2023-03-08T10:28:20.710Z,94740.72
2023-03-08T10:30:51.088Z,94732.22
2023-03-08T10:33:21.954Z,94738.00
2023-03-08T10:36:02.317Z,94726.31
2023-03-08T10:38:33.135Z,94730.97
2023-03-08T10:41:03.367Z,94731.34
2023-03-08T10:43:38.284Z,94726.56
2023-03-08T10:46:14.482Z,94730.91
2023-03-08T10:48:42.913Z,94724.88
2023-03-08T10:51:19.740Z,94721.09
2023-03-08T10:53:55.739Z,94703.69
2023-03-08T10:56:28.594Z,94717.31
2023-03-08T10:58:58.635Z,94705.34
2023-03-08T11:01:29.756Z,94704.03
2023-03-08T11:04:06.340Z,94709.59
2023-03-08T11:06:36.737Z,94710.34
2023-03-08T11:09:20.226Z,94678.22
2023-03-08T11:11:48.476Z,94695.84
2023-03-08T11:14:17.234Z,94688.78
2023-03-08T11:17:00.820Z,94683.41
2023-03-08T11:19:41.570Z,94684.19
2023-03-08T11:22:24.070Z,94682.44
2023-03-08T11:25:08.137Z,94678.44
2023-03-08T11:27:51.423Z,94675.56
2023-03-08T11:30:29.174Z,94585.22
2023-03-08T11:33:25.089Z,94661.81
2023-03-08T11:36:01.618Z,94594.19
2023-03-08T11:38:32.632Z,94632.50
2023-03-08T11:41:08.439Z,94606.19
2023-03-08T11:43:55.817Z,94630.53
2023-03-08T11:46:28.368Z,94625.28
2023-03-08T11:49:22.311Z,94625.75
2023-03-08T11:51:55.873Z,94566.38
2023-03-08T11:54:41.857Z,94634.31
2023-03-08T11:57:12.418Z,94614.97
2023-03-08T11:59:45.451Z,94625.56
2023-03-08T12:02:20.056Z,94631.50
2023-03-08T12:04:58.882Z,94622.81
2023-03-08T12:07:32.659Z,94622.94
2023-03-08T12:10:10.844Z,94625.50
2023-03-08T12:12:42.591Z,94632.09
2023-03-08T12:15:26.051Z,94620.19
2023-03-08T12:17:58.799Z,94603.13
2023-03-08T12:20:33.083Z,94614.41
2023-03-08T12:23:09.844Z,94606.19
2023-03-08T12:25:42.888Z,94601.91
2023-03-08T12:28:18.281Z,94606.72
2023-03-08T12:31:00.116Z,94601.38
2023-03-08T12:33:32.446Z,94545.38
2023-03-08T12:36:03.217Z,94593.66
2023-03-08T12:38:38.077Z,94591.28
2023-03-08T12:41:23.415Z,94591.59
2023-03-08T12:44:01.302Z,94591.75
2023-03-08T12:46:29.924Z,94582.72
2023-03-08T12:48:58.590Z,94583.84
2023-03-08T12:51:33.587Z,94583.28
2023-03-08T12:54:04.195Z,94582.69
2023-03-08T12:56:37.365Z,94587.47
2023-03-08T12:59:32.963Z,94573.78
2023-03-08T13:02:04.542Z,94577.59
2023-03-08T13:04:41.505Z,94582.31
2023-03-08T13:07:29.984Z,94561.34
2023-03-08T13:10:04.462Z,94586.50
2023-03-08T13:13:05.574Z,94560.66
2023-03-08T13:15:52.248Z,94571.66
2023-03-08T13:18:21.733Z,94571.97
2023-03-08T13:21:09.815Z,94579.69
2023-03-08T13:23:42.070Z,94580.16
2023-03-08T13:26:49.361Z,94582.03
2023-03-08T13:29:21.528Z,94569.22
2023-03-08T13:31:50.955Z,94588.25
2023-03-08T13:34:27.526Z,94562.03
2023-03-08T13:36:56.162Z,94584.59
2023-03-08T13:39:26.018Z,94546.16
2023-03-08T13:41:54.599Z,94584.13
2023-03-08T13:44:26.086Z,94533.06
2023-03-08T13:46:57.204Z,94532.94
2023-03-08T13:49:27.699Z,94583.72
2023-03-08T13:51:58.961Z,94580.31
2023-03-08T13:54:31.554Z,94577.03
2023-03-08T13:57:01.333Z,94579.94
2023-03-08T13:59:31.929Z,94587.03
2023-03-08T14:02:00.318Z,94582.13
2023-03-08T14:04:30.620Z,94571.97
2023-03-08T14:07:00.482Z,94431.50
2023-03-08T14:09:28.984Z,94576.84
2023-03-08T14:12:00.855Z,94464.59
2023-03-08T14:14:34.124Z,94567.47
2023-03-08T14:17:02.988Z,94567.25
2023-03-08T14:19:34.077Z,94562.53
2023-03-08T14:22:04.196Z,94554.94
2023-03-08T14:24:35.176Z,94581.19
2023-03-08T14:27:05.166Z,94561.41
2023-03-08T14:29:35.837Z,94503.25
2023-03-08T14:32:08.123Z,94552.75
2023-03-08T14:34:39.609Z,94559.19
2023-03-08T14:37:14.642Z,94561.03
2023-03-08T14:39:45.247Z,94566.31
2023-03-08T14:42:22.135Z,94573.56
2023-03-08T14:44:57.851Z,94567.34
2023-03-08T14:47:28.421Z,94551.91
2023-03-08T14:50:02.943Z,94557.22
2023-03-08T14:52:33.365Z,94539.47
2023-03-08T14:55:03.576Z,94569.34
2023-03-08T14:57:32.546Z,94564.81
2023-03-08T15:00:14.293Z,94554.28
2023-03-08T15:02:42.713Z,94559.06
2023-03-08T15:05:25.476Z,94572.13
2023-03-08T15:07:57.614Z,94562.28
2023-03-08T15:10:30.467Z,94558.66
2023-03-08T15:12:59.487Z,94561.22
2023-03-08T15:15:37.509Z,94571.59
2023-03-08T15:18:06.084Z,94514.09
2023-03-08T15:20:34.384Z,94554.91
2023-03-08T15:23:07.391Z,94549.56
2023-03-08T15:25:37.746Z,94572.06
2023-03-08T15:28:07.621Z,94571.19
2023-03-08T15:30:37.333Z,94575.84
2023-03-08T15:33:05.702Z,94582.16
2023-03-08T15:35:34.090Z,94534.53
2023-03-08T15:38:02.535Z,94588.22
2023-03-08T15:40:32.599Z,94590.13
2023-03-08T15:43:01.240Z,94589.78
2023-03-08T15:45:29.878Z,94512.81
2023-03-08T15:48:01.393Z,94593.50
2023-03-08T15:50:30.836Z,94597.13
2023-03-08T15:53:00.016Z,94066.34
2023-03-08T15:55:30.343Z,94591.09
2023-03-08T15:57:59.228Z,94613.91
2023-03-08T16:00:27.949Z,94622.66
2023-03-08T16:02:56.725Z,94608.09
2023-03-08T16:05:28.556Z,94615.50
2023-03-08T16:07:57.806Z,94629.50
2023-03-08T16:10:26.770Z,94630.25
2023-03-08T16:12:55.200Z,94632.81
2023-03-08T16:15:23.912Z,94628.09
2023-03-08T16:17:52.350Z,94636.25
2023-03-08T16:20:23.325Z,94633.41
2023-03-08T16:22:55.101Z,94624.16
2023-03-08T16:25:24.116Z,94560.72
2023-03-08T16:27:53.305Z,94628.22
2023-03-08T16:30:21.907Z,94611.75
2023-03-08T16:32:53.805Z,94619.91
2023-03-08T16:35:22.351Z,94596.63
2023-03-08T16:37:50.599Z,94631.03
2023-03-08T16:40:20.510Z,94624.84
2023-03-08T16:42:52.557Z,94640.28
2023-03-08T16:45:20.960Z,94624.28
2023-03-08T16:47:49.225Z,94638.63
2023-03-08T16:50:17.910Z,94643.59
2023-03-08T16:52:46.364Z,94645.16
2023-03-08T16:55:14.871Z,94642.00
2023-03-08T16:57:44.582Z,94644.47
2023-03-08T17:00:14.316Z,94660.19
2023-03-08T17:02:44.187Z,94646.25
2023-03-08T17:05:14.093Z,94660.91
2023-03-08T17:07:42.317Z,94663.91
2023-03-08T17:10:11.945Z,94663.91
2023-03-08T17:12:40.150Z,94672.53
2023-03-08T17:15:11.603Z,94668.78
2023-03-08T17:17:40.505Z,94643.84
2023-03-08T17:20:10.473Z,94684.31
2023-03-08T17:22:38.704Z,94670.13
2023-03-08T17:25:08.064Z,94685.19
2023-03-08T17:27:36.420Z,94683.69
2023-03-08T17:30:05.842Z,94685.44
2023-03-08T17:32:35.984Z,94695.31
2023-03-08T17:35:05.596Z,94693.66
2023-03-08T17:37:40.607Z,94696.22
2023-03-08T17:40:11.163Z,94693.56
2023-03-08T17:42:40.401Z,94605.13
2023-03-08T17:45:10.339Z,94698.44
2023-03-08T17:47:40.192Z,94698.38
2023-03-08T17:50:10.373Z,94704.09
2023-03-08T17:55:27.524Z,94695.91
2023-03-08T17:57:55.902Z,94693.53
2023-03-08T18:00:24.868Z,94697.34
2023-03-08T18:02:54.806Z,94671.34
2023-03-08T18:05:23.070Z,94695.78
2023-03-08T18:07:51.792Z,94693.13
2023-03-08T18:10:20.519Z,94692.34
2023-03-08T18:12:49.678Z,94702.31
2023-03-08T18:15:18.160Z,94705.97
2023-03-08T18:17:46.687Z,94711.66
2023-03-08T18:20:18.262Z,94702.19
2023-03-08T18:22:50.941Z,94729.50
2023-03-08T18:25:19.576Z,94671.25
2023-03-08T18:27:48.000Z,94751.00
2023-03-08T18:30:16.807Z,94748.91
2023-03-08T18:32:45.607Z,94700.78
2023-03-08T18:35:15.374Z,94690.19
2023-03-08T18:37:43.703Z,94756.69
2023-03-08T18:40:13.080Z,94776.78
2023-03-08T18:42:41.642Z,94715.53
2023-03-08T18:45:10.615Z,94779.50
2023-03-08T18:47:39.614Z,94691.31
2023-03-08T18:50:09.518Z,94723.38
2023-03-08T18:52:39.261Z,94761.22
2023-03-08T18:55:09.777Z,94779.06
2023-03-08T18:57:38.494Z,94713.91
2023-03-08T19:00:10.716Z,94752.09
2023-03-08T19:02:39.294Z,94795.53
2023-03-08T19:05:08.623Z,94757.66
2023-03-08T19:07:38.405Z,94812.16
2023-03-08T19:10:07.434Z,94808.28
2023-03-08T19:12:38.089Z,94807.13
2023-03-08T19:15:07.781Z,94804.94
2023-03-08T19:17:36.077Z,94784.47
2023-03-08T19:20:05.166Z,94752.97
2023-03-08T19:22:33.714Z,94788.00
2023-03-08T19:25:06.008Z,94799.34
2023-03-08T19:27:34.995Z,94780.78
2023-03-08T19:30:03.318Z,94687.28
2023-03-08T19:32:31.713Z,94779.88
2023-03-08T19:35:00.097Z,94779.78
2023-03-08T19:37:28.719Z,94706.91
2023-03-08T19:39:57.302Z,94762.94
2023-03-08T19:42:26.971Z,94800.13
2023-03-08T19:44:58.418Z,94787.38
2023-03-08T19:47:26.684Z,94810.13
2023-03-08T19:49:54.999Z,94807.16
2023-03-08T19:52:23.438Z,94791.41
2023-03-08T19:54:51.684Z,94816.44
2023-03-08T19:57:20.070Z,94820.91
2023-03-08T19:59:49.698Z,94823.66
2023-03-08T20:02:17.928Z,94820.44
2023-03-08T20:04:46.272Z,94721.13
2023-03-08T20:07:14.487Z,94832.16
2023-03-08T20:09:43.114Z,94840.28
2023-03-08T20:12:11.795Z,94848.81
2023-03-08T20:14:39.995Z,94868.00
2023-03-08T20:17:09.692Z,94879.97
2023-03-08T20:19:37.966Z,94880.25
2023-03-08T20:22:06.262Z,94881.78
2023-03-08T20:24:34.559Z,94810.75
2023-03-08T20:27:04.295Z,94861.78
2023-03-08T20:29:32.828Z,94842.53
2023-03-08T20:32:03.761Z,94871.97
2023-03-08T20:34:34.090Z,94879.28
2023-03-08T20:37:02.511Z,94867.88
2023-03-08T20:39:30.896Z,94861.47
2023-03-08T20:41:59.224Z,94833.28
2023-03-08T20:44:27.516Z,94701.09
2023-03-08T20:46:55.808Z,94873.69
2023-03-08T20:49:25.523Z,94796.22
2023-03-08T20:51:55.219Z,94865.78
2023-03-08T20:54:23.521Z,94810.78
2023-03-08T20:56:52.051Z,94872.31
2023-03-08T20:59:24.241Z,94798.88
2023-03-08T21:01:52.549Z,94859.41
2023-03-08T21:04:20.850Z,94886.28
2023-03-08T21:06:50.112Z,94827.50
2023-03-08T21:09:20.327Z,94884.00
2023-03-08T21:11:51.523Z,94818.22
2023-03-08T21:14:19.803Z,94852.41
2023-03-08T21:16:48.074Z,94897.03
2023-03-08T21:19:16.384Z,94894.72
2023-03-08T21:21:46.517Z,94806.09
2023-03-08T21:24:16.810Z,94880.16
2023-03-08T21:26:46.972Z,94891.97
2023-03-08T21:29:17.609Z,94891.84
2023-03-08T21:31:49.918Z,94866.94
2023-03-08T21:34:18.552Z,94842.81
2023-03-08T21:36:47.053Z,94822.44
2023-03-08T21:39:15.430Z,94799.47
2023-03-08T21:41:48.424Z,94847.69
2023-03-08T21:44:18.255Z,94884.16
2023-03-08T21:46:47.636Z,94893.41
2023-03-08T21:49:18.303Z,94866.94
2023-03-08T21:51:46.724Z,94860.91
2023-03-08T21:54:15.322Z,94876.25
2023-03-08T21:56:43.870Z,94817.09
2023-03-08T21:59:13.716Z,94870.31
2023-03-08T22:01:44.240Z,94868.13
2023-03-08T22:04:12.504Z,94863.16
2023-03-08T22:06:40.740Z,94868.06
2023-03-08T22:09:09.416Z,94856.47
2023-03-08T22:11:37.783Z,94856.84
2023-03-08T22:14:06.260Z,94855.34
2023-03-08T22:16:38.053Z,94860.47
2023-03-08T22:19:06.478Z,94667.19
2023-03-08T22:21:34.980Z,94783.88
2023-03-08T22:24:03.756Z,94783.81
2023-03-08T22:26:32.799Z,94682.09
2023-03-08T22:29:01.176Z,94740.78
2023-03-08T22:31:31.181Z,94867.53
2023-03-08T22:34:01.529Z,94803.03
2023-03-08T22:36:29.911Z,94872.28
2023-03-08T22:38:58.252Z,94836.03
2023-03-08T22:41:28.559Z,94876.84
2023-03-08T22:43:56.923Z,94873.38
2023-03-08T22:46:28.052Z,94774.81
2023-03-08T22:48:57.769Z,94859.81
2023-03-08T22:51:28.577Z,94828.22
2023-03-08T22:53:59.212Z,94837.56
2023-03-08T22:56:30.823Z,94842.41
2023-03-08T22:58:59.718Z,94822.63
2023-03-08T23:01:29.104Z,94869.94
2023-03-08T23:03:59.684Z,94839.81
2023-03-08T23:06:31.264Z,94877.34
2023-03-08T23:09:01.316Z,94871.59
2023-03-08T23:11:30.251Z,94879.84
2023-03-08T23:13:58.666Z,94608.88
2023-03-08T23:16:27.392Z,94877.00
2023-03-08T23:18:56.435Z,94813.00
2023-03-08T23:21:26.824Z,94874.03
2023-03-08T23:23:56.733Z,94876.63
2023-03-08T23:26:27.396Z,94882.97
2023-03-08T23:28:56.972Z,94881.34
2023-03-08T23:31:26.914Z,94880.50
2023-03-08T23:33:55.613Z,94647.88
2023-03-08T23:36:25.936Z,94869.84
2023-03-08T23:38:54.376Z,94677.50
2023-03-08T23:41:24.072Z,94876.03
2023-03-08T23:43:55.540Z,94888.97
2023-03-08T23:46:24.502Z,94894.25
2023-03-08T23:48:55.021Z,94896.50
2023-03-08T23:51:24.763Z,94895.31
2023-03-08T23:53:55.199Z,94889.31
2023-03-08T23:56:27.566Z,94888.00
2023-03-08T23:58:56.946Z,94831.47
